createdAt,value
2019-06-10T00:03:51.741Z,67.68
2019-06-10T00:06:22.518Z,67.71
2019-06-10T00:08:51.851Z,68.03
2019-06-10T00:14:58.728Z,68.03
2019-06-10T00:17:55.029Z,68.36
2019-06-10T00:20:59.807Z,68.88
2019-06-10T00:23:31.640Z,68.96
2019-06-10T00:26:41.337Z,69.58
2019-06-10T00:29:12.366Z,69.82
2019-06-10T00:32:21.617Z,69.55
2019-06-10T00:35:12.398Z,70.26
2019-06-10T00:37:43.686Z,69.66
2019-06-10T00:43:30.262Z,69.80
2019-06-10T00:46:00.720Z,70.28
2019-06-10T00:48:32.322Z,70.12
2019-06-10T00:51:04.137Z,70.05
2019-06-10T00:53:34.036Z,70.48
2019-06-10T00:56:42.918Z,70.11
2019-06-10T00:59:14.880Z,71.12
2019-06-10T01:01:43.522Z,72.34
2019-06-10T01:04:52.341Z,71.05
2019-06-10T01:07:22.572Z,71.09
2019-06-10T01:10:31.716Z,71.98
2019-06-10T01:13:05.084Z,71.47
2019-06-10T01:15:34.428Z,72.31
2019-06-10T01:18:03.794Z,72.54
2019-06-10T01:20:33.406Z,71.57
2019-06-10T01:23:02.929Z,71.24
2019-06-10T01:25:51.665Z,71.26
2019-06-10T01:28:22.005Z,70.89
2019-06-10T01:30:52.246Z,71.38
2019-06-10T01:33:21.839Z,71.56
2019-06-10T01:36:31.409Z,71.67
2019-06-10T01:39:02.149Z,71.23
2019-06-10T01:41:31.500Z,70.88
2019-06-10T01:44:01.727Z,71.04
2019-06-10T01:46:31.726Z,71.49
2019-06-10T01:49:03.269Z,71.17
2019-06-10T01:51:32.734Z,71.06
2019-06-10T01:54:02.155Z,71.69
2019-06-10T01:56:31.620Z,71.36
2019-06-10T01:59:01.592Z,70.95
2019-06-10T02:01:51.741Z,71.26
2019-06-10T02:05:01.602Z,71.25
2019-06-10T02:10:26.629Z,71.37
2019-06-10T02:12:56.031Z,71.26
2019-06-10T02:15:25.539Z,70.88
2019-06-10T02:17:54.968Z,71.28
2019-06-10T02:20:24.574Z,70.90
2019-06-10T02:22:54.141Z,70.28
2019-06-10T02:26:03.003Z,70.29
2019-06-10T02:28:34.846Z,70.45
2019-06-10T02:31:04.187Z,70.76
2019-06-10T02:34:17.611Z,70.50
2019-06-10T02:36:44.810Z,70.18
2019-06-10T02:44:37.635Z,69.57
2019-06-10T02:47:06.617Z,69.58
2019-06-10T02:52:37.221Z,69.03
2019-06-10T02:58:13.774Z,68.93
2019-06-10T03:00:48.607Z,68.48
2019-06-10T03:03:25.700Z,68.14
2019-06-10T03:05:47.637Z,68.28
2019-06-10T03:08:56.363Z,68.04
2019-06-10T03:11:27.937Z,67.33
2019-06-10T03:13:57.311Z,67.20
2019-06-10T03:16:45.720Z,66.81
2019-06-10T03:19:15.874Z,66.43
2019-06-10T03:21:46.931Z,65.78
2019-06-10T03:24:17.028Z,65.69
2019-06-10T03:26:47.855Z,65.17
2019-06-10T03:29:18.340Z,65.50
2019-06-10T03:31:48.795Z,65.32
2019-06-10T03:34:23.214Z,65.22
2019-06-10T03:36:53.514Z,65.15
2019-06-10T03:39:25.776Z,64.96
2019-06-10T03:44:56.885Z,65.40
2019-06-10T03:48:05.740Z,65.36
2019-06-10T03:50:47.076Z,65.13
2019-06-10T03:53:17.300Z,65.03
2019-06-10T03:55:47.660Z,64.96
2019-06-10T03:58:17.466Z,64.97
2019-06-10T04:00:58.820Z,65.03
2019-06-10T04:03:29.373Z,65.12
2019-06-10T04:06:02.274Z,64.31
2019-06-10T04:08:32.813Z,63.63
2019-06-10T04:11:02.968Z,63.37
2019-06-10T04:14:13.272Z,62.85
2019-06-10T04:16:43.331Z,62.33
2019-06-10T04:19:14.298Z,62.23
2019-06-10T04:22:24.937Z,62.36
2019-06-10T04:24:54.371Z,63.07
2019-06-10T04:27:25.360Z,62.90
2019-06-10T04:29:55.324Z,62.43
2019-06-10T04:33:04.216Z,62.60
2019-06-10T04:36:13.671Z,62.59
2019-06-10T04:38:44.470Z,62.36
2019-06-10T04:41:14.324Z,61.79
2019-06-10T04:46:38.888Z,60.49
2019-06-10T04:52:24.792Z,60.67
2019-06-10T04:54:54.055Z,60.50
2019-06-10T04:57:25.313Z,59.92
2019-06-10T05:02:32.846Z,59.25
2019-06-10T05:05:02.971Z,59.12
2019-06-10T05:08:13.152Z,58.42
2019-06-10T05:10:43.705Z,57.46
2019-06-10T05:16:30.826Z,56.50
2019-06-10T05:22:03.075Z,55.16
2019-06-10T05:25:12.851Z,55.28
2019-06-10T05:27:43.617Z,55.69
2019-06-10T05:33:23.079Z,53.85
2019-06-10T05:35:53.269Z,53.24
2019-06-10T05:38:23.949Z,53.32
2019-06-10T05:40:53.686Z,54.16
2019-06-10T05:43:24.755Z,51.59
2019-06-10T05:45:54.725Z,52.54
2019-06-10T05:51:35.205Z,50.63
2019-06-10T05:54:04.977Z,49.64
2019-06-10T05:56:35.745Z,48.39
2019-06-10T05:59:06.012Z,49.09
2019-06-10T06:04:50.269Z,48.95
2019-06-10T06:10:29.462Z,49.05
2019-06-10T06:13:00.137Z,48.01
2019-06-10T06:15:29.689Z,48.44
2019-06-10T06:18:07.198Z,48.80
2019-06-10T06:20:31.957Z,47.31
2019-06-10T06:23:02.756Z,47.49
2019-06-10T06:25:38.882Z,46.62
2019-06-10T06:28:04.098Z,47.07
2019-06-10T06:33:32.743Z,46.93
2019-06-10T06:36:03.392Z,47.11
2019-06-10T06:38:34.015Z,47.75
2019-06-10T06:44:13.832Z,48.13
2019-06-10T06:46:43.256Z,45.61
2019-06-10T06:49:12.993Z,45.13
2019-06-10T06:51:54.613Z,45.50
2019-06-10T06:54:15.565Z,45.30
2019-06-10T06:56:45.071Z,44.33
2019-06-10T06:59:14.457Z,44.95
2019-06-10T07:01:44.627Z,41.74
2019-06-10T07:04:14.194Z,41.50
2019-06-10T07:07:23.441Z,41.13
2019-06-10T07:16:08.252Z,40.55
2019-06-10T07:18:43.350Z,41.77
2019-06-10T07:21:09.338Z,42.25
2019-06-10T07:23:41.089Z,40.12
2019-06-10T07:26:12.613Z,39.77
2019-06-10T07:28:46.665Z,40.28
2019-06-10T07:33:53.228Z,40.10
2019-06-10T07:36:23.688Z,39.98
2019-06-10T07:38:54.601Z,40.34
2019-06-10T07:44:19.545Z,41.77
2019-06-10T07:46:48.907Z,41.40
2019-06-10T07:49:18.374Z,40.95
2019-06-10T07:52:27.967Z,40.05
2019-06-10T07:58:22.795Z,39.18
2019-06-10T08:00:53.437Z,39.69
2019-06-10T08:03:24.012Z,38.13
2019-06-10T08:05:53.558Z,39.31
2019-06-10T08:11:18.153Z,38.67
2019-06-10T08:13:48.066Z,38.12
2019-06-10T08:16:18.840Z,36.91
2019-06-10T08:19:16.089Z,38.44
2019-06-10T08:21:19.983Z,37.33
2019-06-10T08:23:49.361Z,37.51
2019-06-10T08:26:20.026Z,37.99
2019-06-10T08:29:28.881Z,38.04
2019-06-10T08:31:58.488Z,39.25
2019-06-10T08:37:44.802Z,37.09
2019-06-10T08:40:14.492Z,37.37
2019-06-10T08:43:24.258Z,38.10
2019-06-10T08:45:53.774Z,37.64
2019-06-10T08:48:23.729Z,37.89
2019-06-10T08:50:53.602Z,37.28
2019-06-10T08:53:23.323Z,37.09
2019-06-10T08:58:51.625Z,39.34
2019-06-10T09:04:35.487Z,38.43
2019-06-10T09:07:04.832Z,38.28
2019-06-10T09:13:09.221Z,37.45
2019-06-10T09:15:40.664Z,36.43
2019-06-10T09:18:13.966Z,37.35
2019-06-10T09:20:45.909Z,36.78
2019-06-10T09:23:21.921Z,38.16
2019-06-10T09:25:50.500Z,38.83
2019-06-10T09:28:17.329Z,38.75
2019-06-10T09:33:46.619Z,37.99
2019-06-10T09:36:13.674Z,37.18
2019-06-10T09:38:47.323Z,38.02
2019-06-10T09:42:01.484Z,38.19
2019-06-10T09:54:05.623Z,39.99
2019-06-10T09:59:46.370Z,39.41
2019-06-10T10:02:13.252Z,38.98
2019-06-10T10:05:23.386Z,38.90
2019-06-10T10:07:57.238Z,39.21
2019-06-10T10:11:04.593Z,39.21
2019-06-10T10:16:53.764Z,37.89
2019-06-10T10:19:38.978Z,38.84
2019-06-10T10:22:10.990Z,38.76
2019-06-10T10:24:42.483Z,38.23
2019-06-10T10:27:13.512Z,37.64
2019-06-10T10:29:45.271Z,37.77
2019-06-10T10:41:23.999Z,37.03
2019-06-10T10:43:57.806Z,35.10
2019-06-10T10:46:26.690Z,35.34
2019-06-10T10:48:56.620Z,35.54
2019-06-10T11:03:42.864Z,35.02
2019-06-10T11:06:12.877Z,35.12
2019-06-10T11:08:45.289Z,35.04
2019-06-10T11:17:33.645Z,33.84
2019-06-10T11:20:03.831Z,35.29
2019-06-10T11:22:33.353Z,35.38
2019-06-10T11:27:38.667Z,33.56
2019-06-10T11:33:04.789Z,33.62
2019-06-10T11:35:34.669Z,33.15
2019-06-10T11:38:43.552Z,32.99
2019-06-10T11:41:13.876Z,31.02
2019-06-10T11:43:43.354Z,32.06
2019-06-10T11:46:14.875Z,32.63
2019-06-10T11:48:44.950Z,33.35
2019-06-10T11:51:14.621Z,33.79
2019-06-10T11:53:44.518Z,32.46
2019-06-10T11:56:14.165Z,32.80
2019-06-10T11:58:43.688Z,31.82
2019-06-10T12:01:13.519Z,31.89
2019-06-10T12:03:45.121Z,31.93
2019-06-10T12:06:14.725Z,31.50
2019-06-10T12:12:02.288Z,31.78
2019-06-10T12:14:33.184Z,31.98
2019-06-10T12:17:21.886Z,31.18
2019-06-10T12:22:37.120Z,30.90
2019-06-10T12:25:32.421Z,32.22
2019-06-10T12:30:57.319Z,30.50
2019-06-10T12:33:25.480Z,28.96
2019-06-10T12:35:59.474Z,29.69
2019-06-10T12:38:26.860Z,31.09
2019-06-10T12:44:05.284Z,31.31
2019-06-10T12:49:43.829Z,30.77
2019-06-10T12:52:13.963Z,30.78
2019-06-10T12:54:43.474Z,30.25
2019-06-10T12:57:16.485Z,31.35
2019-06-10T13:03:03.793Z,31.00
2019-06-10T13:05:33.262Z,31.84
2019-06-10T13:08:43.104Z,30.41
2019-06-10T13:11:14.923Z,31.27
2019-06-10T13:13:45.369Z,29.08
2019-06-10T13:16:18.543Z,29.95
2019-06-10T13:18:48.060Z,29.29
2019-06-10T13:21:57.333Z,28.90
2019-06-10T13:24:26.817Z,29.00
2019-06-10T13:26:56.602Z,29.11
2019-06-10T13:30:05.455Z,28.32
2019-06-10T13:35:32.186Z,28.69
2019-06-10T13:38:04.147Z,29.40
2019-06-10T13:41:05.729Z,28.87
2019-06-10T13:43:35.724Z,28.48
2019-06-10T13:46:07.365Z,28.24
2019-06-10T13:48:37.019Z,27.33
2019-06-10T13:51:10.218Z,26.96
2019-06-10T13:53:37.601Z,27.79
2019-06-10T13:56:32.393Z,29.57
2019-06-10T14:01:53.391Z,30.24
2019-06-10T14:04:25.727Z,30.93
2019-06-10T14:06:57.267Z,30.48
2019-06-10T14:12:01.898Z,31.18
2019-06-10T14:14:33.312Z,32.32
2019-06-10T14:17:03.987Z,32.30
2019-06-10T14:19:34.794Z,32.67
2019-06-10T14:28:34.843Z,32.12
2019-06-10T14:30:46.541Z,32.50
2019-06-10T14:33:16.724Z,33.72
2019-06-10T14:35:46.170Z,34.02
2019-06-10T14:38:15.950Z,34.68
2019-06-10T14:40:45.432Z,34.71
2019-06-10T14:43:16.246Z,34.78
2019-06-10T14:45:46.152Z,33.95
2019-06-10T14:48:17.517Z,34.88
2019-06-10T14:50:46.662Z,34.11
2019-06-10T14:53:16.957Z,35.61
2019-06-10T14:55:47.443Z,35.17
2019-06-10T14:58:19.244Z,34.71
2019-06-10T15:00:49.258Z,34.66
2019-06-10T15:03:20.030Z,33.98
2019-06-10T15:05:52.673Z,34.74
2019-06-10T15:08:23.124Z,35.04
2019-06-10T15:10:53.779Z,34.80
2019-06-10T15:13:23.796Z,34.96
2019-06-10T15:15:53.501Z,35.53
2019-06-10T15:18:23.908Z,35.10
2019-06-10T15:20:53.726Z,34.55
2019-06-10T15:23:23.783Z,34.51
2019-06-10T15:25:56.890Z,34.56
2019-06-10T15:28:24.269Z,34.75
2019-06-10T15:30:53.799Z,34.87
2019-06-10T15:33:23.981Z,35.16
2019-06-10T15:35:54.500Z,34.93
2019-06-10T15:38:24.031Z,35.84
2019-06-10T15:41:32.715Z,35.38
2019-06-10T15:47:03.953Z,35.73
2019-06-10T15:49:33.426Z,35.63
2019-06-10T15:52:03.355Z,36.09
2019-06-10T15:54:33.474Z,35.77
2019-06-10T15:57:45.644Z,35.50
2019-06-10T16:03:08.909Z,36.16
2019-06-10T16:05:38.372Z,36.52
2019-06-10T16:08:07.863Z,37.26
2019-06-10T16:11:18.926Z,37.71
2019-06-10T16:13:49.190Z,37.36
2019-06-10T16:16:18.989Z,37.32
2019-06-10T16:18:49.816Z,37.44
2019-06-10T16:21:20.405Z,37.75
2019-06-10T16:23:53.150Z,37.81
2019-06-10T16:26:25.238Z,38.15
2019-06-10T16:28:52.634Z,37.80
2019-06-10T16:31:25.606Z,37.88
2019-06-10T16:33:53.676Z,38.32
2019-06-10T16:36:25.887Z,38.23
2019-06-10T16:38:54.638Z,38.61
2019-06-10T16:42:03.421Z,38.26
2019-06-10T16:44:33.144Z,38.65
2019-06-10T16:47:05.014Z,38.46
2019-06-10T16:49:34.483Z,38.67
2019-06-10T16:52:25.639Z,38.31
2019-06-10T16:54:54.805Z,38.17
2019-06-10T16:57:25.585Z,38.29
2019-06-10T16:59:55.471Z,38.15
2019-06-10T17:02:25.457Z,38.30
2019-06-10T17:04:58.393Z,38.75
2019-06-10T17:07:29.074Z,38.27
2019-06-10T17:09:58.641Z,38.38
2019-06-10T17:15:42.839Z,38.29
2019-06-10T17:18:13.068Z,37.88
2019-06-10T17:21:04.079Z,38.01
2019-06-10T17:23:36.615Z,37.61
2019-06-10T17:26:05.576Z,38.28
2019-06-10T17:28:37.008Z,37.45
2019-06-10T17:34:02.808Z,38.19
2019-06-10T17:36:35.131Z,38.17
2019-06-10T17:41:59.691Z,38.38
2019-06-10T17:44:30.781Z,37.38
2019-06-10T17:47:02.300Z,38.19
2019-06-10T17:49:34.694Z,38.05
2019-06-10T17:55:19.338Z,37.95
2019-06-10T17:57:49.359Z,38.27
2019-06-10T18:03:14.543Z,38.03
2019-06-10T18:11:35.821Z,37.22
2019-06-10T18:17:06.678Z,37.47
2019-06-10T18:19:37.483Z,37.57
2019-06-10T18:22:07.740Z,37.31
2019-06-10T18:24:37.208Z,37.72
2019-06-10T18:27:06.759Z,37.58
2019-06-10T18:29:37.312Z,37.96
2019-06-10T18:32:06.838Z,38.38
2019-06-10T18:34:38.012Z,39.75
2019-06-10T18:37:07.891Z,40.34
2019-06-10T18:39:37.377Z,41.38
2019-06-10T18:42:06.898Z,41.65
2019-06-10T18:44:37.530Z,42.04
2019-06-10T18:47:07.353Z,42.20
2019-06-10T18:49:37.539Z,42.16
2019-06-10T18:52:07.110Z,42.50
2019-06-10T18:55:15.945Z,42.82
2019-06-10T19:03:37.575Z,43.30
2019-06-10T19:06:06.492Z,43.57
2019-06-10T19:11:50.504Z,43.58
2019-06-10T19:14:20.109Z,43.57
2019-06-10T19:17:30.394Z,43.75
2019-06-10T19:20:03.757Z,43.74
2019-06-10T19:22:34.069Z,43.78
2019-06-10T19:25:06.357Z,43.92
2019-06-10T19:27:36.878Z,44.07
2019-06-10T19:30:07.477Z,44.23
2019-06-10T19:32:38.315Z,44.55
2019-06-10T19:35:09.015Z,44.39
2019-06-10T19:38:17.967Z,45.12
2019-06-10T19:43:40.663Z,45.78
2019-06-10T19:46:12.849Z,45.81
2019-06-10T19:51:37.396Z,46.14
2019-06-10T19:54:47.248Z,46.97
2019-06-10T19:57:17.848Z,46.55
2019-06-10T20:00:26.541Z,46.98
2019-06-10T20:06:06.001Z,46.78
2019-06-10T20:08:56.300Z,46.67
2019-06-10T20:12:05.232Z,47.11
2019-06-10T20:17:30.125Z,46.79
2019-06-10T20:23:08.964Z,46.74
2019-06-10T20:25:41.020Z,46.56
2019-06-10T20:28:10.504Z,46.54
2019-06-10T20:30:43.339Z,46.46
2019-06-10T20:38:57.604Z,46.89
2019-06-10T20:44:36.094Z,46.77
2019-06-10T20:47:05.845Z,46.77
2019-06-10T20:49:35.203Z,46.88
2019-06-10T20:52:11.141Z,46.89
2019-06-10T20:54:36.433Z,46.79
2019-06-10T20:57:05.843Z,46.84
2019-06-10T20:59:35.575Z,46.81
2019-06-10T21:02:05.110Z,47.56
2019-06-10T21:04:35.465Z,50.51
2019-06-10T21:07:05.094Z,52.28
2019-06-10T21:09:35.035Z,54.08
2019-06-10T21:12:04.494Z,55.47
2019-06-10T21:14:33.946Z,54.43
2019-06-10T21:17:03.652Z,55.08
2019-06-10T21:20:12.665Z,56.00
2019-06-10T21:22:44.288Z,54.90
2019-06-10T21:25:14.627Z,54.92
2019-06-10T21:27:46.315Z,55.57
2019-06-10T21:30:15.917Z,55.75
2019-06-10T21:32:47.013Z,55.92
2019-06-10T21:35:17.462Z,56.04
2019-06-10T21:43:41.322Z,58.91
2019-06-10T21:49:18.527Z,58.93
2019-06-10T21:51:49.945Z,58.97
2019-06-10T21:54:19.571Z,59.37
2019-06-10T21:56:49.049Z,60.03
2019-06-10T21:59:18.492Z,60.06
2019-06-10T22:01:49.116Z,59.99
2019-06-10T22:04:19.445Z,60.35
2019-06-10T22:09:45.624Z,60.85
2019-06-10T22:12:28.013Z,60.16
2019-06-10T22:17:55.924Z,60.52
2019-06-10T22:23:27.554Z,60.20
2019-06-10T22:26:36.161Z,60.57
2019-06-10T22:29:45.124Z,60.33
2019-06-10T22:32:16.957Z,60.71
2019-06-10T22:35:25.635Z,60.84
2019-06-10T22:40:57.089Z,59.92
2019-06-10T22:43:39.173Z,60.01
2019-06-10T22:46:22.973Z,59.83
2019-06-10T22:51:56.475Z,57.85
2019-06-10T22:54:24.946Z,57.45
2019-06-10T22:56:56.771Z,57.16
2019-06-10T22:59:25.425Z,57.03
2019-06-10T23:01:56.536Z,56.89
2019-06-10T23:04:26.371Z,56.57
2019-06-10T23:07:35.308Z,56.74
2019-06-10T23:13:19.621Z,56.08
2019-06-10T23:16:28.258Z,56.10
2019-06-10T23:22:03.670Z,56.02
2019-06-10T23:27:13.192Z,56.65
2019-06-10T23:29:43.948Z,56.51
2019-06-10T23:32:13.330Z,56.51
2019-06-10T23:34:42.771Z,56.27
2019-06-10T23:37:12.552Z,57.01
2019-06-10T23:39:43.725Z,56.68
2019-06-10T23:45:04.903Z,57.13
2019-06-10T23:50:34.833Z,56.79
2019-06-10T23:53:23.435Z,56.93
2019-06-10T23:55:54.638Z,56.88
2019-06-10T23:58:25.337Z,56.70
